• Join FlightAware (Why Join?)
  • Login
  • US Flag 
10:04AM EDT


 

Airport Tracker/Info


-or-


 

Live Flight TrackerFlight Track Log ✈ VNR187 ✈ 19-Apr-2013 ✈ F45 - KPIE

Flight Track Log - Related Links

Times and Time Zones

All times are in EDT time to prevent confusion due to time zone crossing. See the VNR187 flight status page for this flight to view local times or setup timezone preferences in your user account.

Time Position Orientation Groundspeed Altitude Reporting Facility
EDT Latitude Longitude Course Direction KTS MPH feet Rate Location/Type
03:07PM 26.7672 -80.3631 246° West 209 241 5,700  Level Miami Center
03:08PM 26.7428 -80.4297 248° West 209 241 7,500 1,800 Climbing Miami Center
03:09PM 26.7206 -80.4825 245° Southwest 214 246 9,400 1,800 Climbing Miami Center
03:10PM 26.7019 -80.5608 255° West 230 265 11,100 1,320 Climbing Miami Center
03:11PM 26.7169 -80.6264 284° West 235 270 12,100 480 Climbing Miami Center
03:12PM 26.7203 -80.6405 299° West  Level FlightAware Approximate
03:12PM 26.7481 -80.7114 292° West 257 296 12,100  Level Miami Center
03:13PM 26.7861 -80.7753 304° West 269 310 12,700 960 Climbing Miami Center
03:14PM 26.8381 -80.8539 307° West 282 325 14,100 660 Climbing Miami Center
03:15PM 26.8797 -80.9344 300° West 298 343 14,100  Level Miami Center
03:16PM 26.9211 -81.0197 299° West 309 356 14,100 -60 Level Miami Center
03:17PM 26.9606 -81.0981 299° West 314 361 14,000 -60 Descending Miami Center
03:18PM 27.0019 -81.1833 299° West 314 361 14,000  Level Miami Center
03:19PM 27.0472 -81.2783 298° West 314 361 14,100  Climbing Miami Center
03:20PM 27.0864 -81.3639 297° West 314 361 14,100 -600 Level Miami Center
03:21PM 27.1003 -81.4483 280° West 314 361 13,000 -1,140 Descending Miami Center
03:22PM 27.1353 -81.5336 295° West 308 354 11,900 -1,080 Descending Miami Center
03:23PM 27.1722 -81.6122 298° West 295 339 10,900 -540 Descending Miami Center
03:24PM 27.2075 -81.6836 299° West 279 321 10,900  Level Miami Center
03:25PM 27.2578 -81.7394 315° West 264 304 10,900 -60 Level Miami Center
03:26PM 27.2911 -81.8039 300° West 258 297 10,800 -360 Descending Miami Center
03:27PM 27.3239 -81.8778 297° West 252 290 10,200 -660 Descending Miami Center
03:28PM 27.3650 -81.9592 300° West 274 315 9,500 -720 Descending Miami Center
03:29PM 27.4061 -82.0381 300° West 291 335 8,800 -720 Descending Miami Center
03:30PM 27.4447 -82.1194 298° West 291 335 8,100 -480 Descending Miami Center
03:31PM 27.4986 -82.1872 312° West 291 335 7,900 -420 Descending Miami Center
03:32PM 27.5333 -82.2639 297° West 286 329 7,300 -840 Descending Miami Center
03:33PM 27.5631 -82.3611 289° West 286 329 6,300 -1,080 Descending Miami Center
03:34PM 27.5833 -82.4333 288° West 278 320 5,300 -1,080 Descending Tampa TRACON
03:35PM 27.6167 -82.5167 294° West 267 307 4,300 -660 Descending Tampa TRACON
03:36PM 27.6500 -82.5833 299° West 247 284 4,000 -180 Descending Tampa TRACON
03:37PM 27.7000 -82.6500 310° West 268 308 4,000 -60 Level Tampa TRACON
03:38PM 27.7500 -82.7000 318° Northwest 277 319 3,900 -660 Descending Tampa TRACON
03:39PM 27.8167 -82.7333 336° Northwest 264 304 2,800 -780 Descending Tampa TRACON
03:40PM 27.8833 -82.7667 336° Northwest 237 273 2,400 -420 Descending Tampa TRACON
03:41PM 27.9500 -82.7667 360° North 233 268 2,000 -240 Descending Tampa TRACON
03:42PM 27.9833 -82.7500 24° Northeast 197 227 2,000 -240 Level Tampa TRACON
03:43PM 27.9833 -82.7000 90° East 140 161 1,600 -780 Descending Tampa TRACON
03:44PM 27.9500 -82.7000 180° South 120 138 600 -1,140 Descending Tampa TRACON
03:46PM 27.9100 -82.6874 214° Southwest  Level Estimated
03:53PM 27.9100 -82.6874 214° Southwest  Level Estimated
03:54PM 27.9100 -82.6874 214° Southwest  Level Estimated